sensor_id;sensor_type;location;lat;lon;timestamp;temperature;humidity
69776;DHT22;57049;51.450;-2.516;2023-04-25T00:01:54;5.85;92.47
69776;DHT22;57049;51.450;-2.516;2023-04-25T00:04:22;5.80;92.86
69776;DHT22;57049;51.450;-2.516;2023-04-25T00:06:47;5.77;92.93
69776;DHT22;57049;51.450;-2.516;2023-04-25T00:09:13;5.76;92.93
69776;DHT22;57049;51.450;-2.516;2023-04-25T00:11:39;5.71;92.85
69776;DHT22;57049;51.450;-2.516;2023-04-25T00:14:05;5.71;93.03
69776;DHT22;57049;51.450;-2.516;2023-04-25T00:16:31;5.71;92.72
69776;DHT22;57049;51.450;-2.516;2023-04-25T00:18:59;5.77;92.45
69776;DHT22;57049;51.450;-2.516;2023-04-25T00:21:25;5.77;92.97
69776;DHT22;57049;51.450;-2.516;2023-04-25T00:23:52;5.80;93.40
69776;DHT22;57049;51.450;-2.516;2023-04-25T00:26:17;5.77;93.10
69776;DHT22;57049;51.450;-2.516;2023-04-25T00:28:43;5.76;93.26
69776;DHT22;57049;51.450;-2.516;2023-04-25T00:31:08;5.76;92.67
69776;DHT22;57049;51.450;-2.516;2023-04-25T00:33:34;5.71;92.76
69776;DHT22;57049;51.450;-2.516;2023-04-25T00:36:00;5.73;93.08
69776;DHT22;57049;51.450;-2.516;2023-04-25T00:38:25;5.77;92.68
69776;DHT22;57049;51.450;-2.516;2023-04-25T00:40:51;5.76;93.11
69776;DHT22;57049;51.450;-2.516;2023-04-25T00:43:18;5.74;92.58
69776;DHT22;57049;51.450;-2.516;2023-04-25T00:45:43;5.76;92.57
69776;DHT22;57049;51.450;-2.516;2023-04-25T00:48:13;5.77;92.73
69776;DHT22;57049;51.450;-2.516;2023-04-25T00:50:39;5.78;92.59
69776;DHT22;57049;51.450;-2.516;2023-04-25T00:53:05;5.76;92.50
69776;DHT22;57049;51.450;-2.516;2023-04-25T00:55:31;5.74;92.51
69776;DHT22;57049;51.450;-2.516;2023-04-25T00:57:59;5.76;92.34
69776;DHT22;57049;51.450;-2.516;2023-04-25T01:00:25;5.73;92.56
69776;DHT22;57049;51.450;-2.516;2023-04-25T01:02:51;5.70;92.52
69776;DHT22;57049;51.450;-2.516;2023-04-25T01:05:17;5.74;92.43
69776;DHT22;57049;51.450;-2.516;2023-04-25T01:10:53;5.66;92.66
69776;DHT22;57049;51.450;-2.516;2023-04-25T01:13:18;5.67;93.03
69776;DHT22;57049;51.450;-2.516;2023-04-25T01:15:45;5.69;93.64
69776;DHT22;57049;51.450;-2.516;2023-04-25T01:18:11;5.67;93.56
69776;DHT22;57049;51.450;-2.516;2023-04-25T01:20:37;5.69;93.78
69776;DHT22;57049;51.450;-2.516;2023-04-25T01:23:03;5.66;94.21
69776;DHT22;57049;51.450;-2.516;2023-04-25T01:25:30;5.65;94.39
69776;DHT22;57049;51.450;-2.516;2023-04-25T01:27:57;5.62;94.09
69776;DHT22;57049;51.450;-2.516;2023-04-25T01:30:25;5.65;94.39
69776;DHT22;57049;51.450;-2.516;2023-04-25T01:32:51;5.60;94.05
69776;DHT22;57049;51.450;-2.516;2023-04-25T01:35:17;5.59;94.13
69776;DHT22;57049;51.450;-2.516;2023-04-25T01:37:43;5.55;93.85
69776;DHT22;57049;51.450;-2.516;2023-04-25T01:40:10;5.52;93.48
69776;DHT22;57049;51.450;-2.516;2023-04-25T01:42:37;5.52;93.47
69776;DHT22;57049;51.450;-2.516;2023-04-25T01:45:03;5.57;92.70
69776;DHT22;57049;51.450;-2.516;2023-04-25T01:47:29;5.52;91.97
69776;DHT22;57049;51.450;-2.516;2023-04-25T01:49:55;5.50;92.13
69776;DHT22;57049;51.450;-2.516;2023-04-25T01:52:20;5.49;92.28
69776;DHT22;57049;51.450;-2.516;2023-04-25T01:54:47;5.47;91.95
69776;DHT22;57049;51.450;-2.516;2023-04-25T01:57:13;5.42;91.80
69776;DHT22;57049;51.450;-2.516;2023-04-25T01:59:39;5.39;91.53
69776;DHT22;57049;51.450;-2.516;2023-04-25T02:02:05;5.32;91.61
69776;DHT22;57049;51.450;-2.516;2023-04-25T02:04:30;5.32;91.49
69776;DHT22;57049;51.450;-2.516;2023-04-25T02:06:56;5.31;91.81
69776;DHT22;57049;51.450;-2.516;2023-04-25T02:09:22;5.26;91.72
69776;DHT22;57049;51.450;-2.516;2023-04-25T02:11:47;5.24;91.70
69776;DHT22;57049;51.450;-2.516;2023-04-25T02:14:13;5.19;91.90
69776;DHT22;57049;51.450;-2.516;2023-04-25T02:16:38;5.19;92.04
69776;DHT22;57049;51.450;-2.516;2023-04-25T02:19:05;5.16;92.38
69776;DHT22;57049;51.450;-2.516;2023-04-25T02:21:30;5.14;92.33
69776;DHT22;57049;51.450;-2.516;2023-04-25T02:23:56;5.11;92.39
69776;DHT22;57049;51.450;-2.516;2023-04-25T02:26:22;5.07;92.61
69776;DHT22;57049;51.450;-2.516;2023-04-25T02:28:49;5.02;92.57
69776;DHT22;57049;51.450;-2.516;2023-04-25T02:31:15;4.96;93.06
69776;DHT22;57049;51.450;-2.516;2023-04-25T02:33:41;4.89;93.70
69776;DHT22;57049;51.450;-2.516;2023-04-25T02:36:07;4.80;93.75
69776;DHT22;57049;51.450;-2.516;2023-04-25T02:38:32;4.67;94.49
69776;DHT22;57049;51.450;-2.516;2023-04-25T02:40:58;4.56;94.59
69776;DHT22;57049;51.450;-2.516;2023-04-25T02:43:23;4.50;94.59
69776;DHT22;57049;51.450;-2.516;2023-04-25T02:45:49;4.46;94.62
69776;DHT22;57049;51.450;-2.516;2023-04-25T02:48:14;4.39;94.79
69776;DHT22;57049;51.450;-2.516;2023-04-25T02:50:40;4.33;95.04
69776;DHT22;57049;51.450;-2.516;2023-04-25T02:53:05;4.26;95.34
69776;DHT22;57049;51.450;-2.516;2023-04-25T02:55:31;4.17;95.24
69776;DHT22;57049;51.450;-2.516;2023-04-25T02:57:56;4.10;95.41
69776;DHT22;57049;51.450;-2.516;2023-04-25T03:00:22;4.07;95.13
69776;DHT22;57049;51.450;-2.516;2023-04-25T03:02:48;4.02;95.34
69776;DHT22;57049;51.450;-2.516;2023-04-25T03:05:13;3.91;95.48
69776;DHT22;57049;51.450;-2.516;2023-04-25T03:07:39;3.81;95.64
69776;DHT22;57049;51.450;-2.516;2023-04-25T03:10:06;3.74;95.95
69776;DHT22;57049;51.450;-2.516;2023-04-25T03:12:32;3.69;95.89
69776;DHT22;57049;51.450;-2.516;2023-04-25T03:14:58;3.68;95.86
69776;DHT22;57049;51.450;-2.516;2023-04-25T03:17:26;3.65;95.83
69776;DHT22;57049;51.450;-2.516;2023-04-25T03:19:52;3.62;95.78
69776;DHT22;57049;51.450;-2.516;2023-04-25T03:22:18;3.64;95.40
69776;DHT22;57049;51.450;-2.516;2023-04-25T03:24:43;3.62;95.08
69776;DHT22;57049;51.450;-2.516;2023-04-25T03:27:09;3.67;94.59
69776;DHT22;57049;51.450;-2.516;2023-04-25T03:29:34;3.61;94.86
69776;DHT22;57049;51.450;-2.516;2023-04-25T03:32:00;3.61;94.31
69776;DHT22;57049;51.450;-2.516;2023-04-25T03:34:26;3.60;93.82
69776;DHT22;57049;51.450;-2.516;2023-04-25T03:36:51;3.62;92.60
69776;DHT22;57049;51.450;-2.516;2023-04-25T03:39:17;3.58;92.10
69776;DHT22;57049;51.450;-2.516;2023-04-25T03:41:42;3.60;91.72
69776;DHT22;57049;51.450;-2.516;2023-04-25T03:44:08;3.55;91.08
69776;DHT22;57049;51.450;-2.516;2023-04-25T03:46:33;3.50;91.36
69776;DHT22;57049;51.450;-2.516;2023-04-25T03:48:59;3.44;91.52
69776;DHT22;57049;51.450;-2.516;2023-04-25T03:51:25;3.37;91.22
69776;DHT22;57049;51.450;-2.516;2023-04-25T03:53:51;3.30;91.38
69776;DHT22;57049;51.450;-2.516;2023-04-25T03:56:17;3.24;91.79
69776;DHT22;57049;51.450;-2.516;2023-04-25T03:58:43;3.11;92.25
69776;DHT22;57049;51.450;-2.516;2023-04-25T04:01:08;3.06;92.81
69776;DHT22;57049;51.450;-2.516;2023-04-25T04:03:40;2.92;93.21
69776;DHT22;57049;51.450;-2.516;2023-04-25T04:06:07;2.80;93.73
69776;DHT22;57049;51.450;-2.516;2023-04-25T04:08:33;2.71;94.03
69776;DHT22;57049;51.450;-2.516;2023-04-25T04:10:59;2.62;94.30
69776;DHT22;57049;51.450;-2.516;2023-04-25T04:13:29;2.50;94.52
69776;DHT22;57049;51.450;-2.516;2023-04-25T04:15:55;2.45;94.95
69776;DHT22;57049;51.450;-2.516;2023-04-25T04:18:21;2.38;95.18
69776;DHT22;57049;51.450;-2.516;2023-04-25T04:20:46;2.29;95.46
69776;DHT22;57049;51.450;-2.516;2023-04-25T04:23:12;2.26;95.71
69776;DHT22;57049;51.450;-2.516;2023-04-25T04:25:37;2.22;95.88
69776;DHT22;57049;51.450;-2.516;2023-04-25T04:28:03;2.17;95.80
69776;DHT22;57049;51.450;-2.516;2023-04-25T04:30:29;2.11;95.92
69776;DHT22;57049;51.450;-2.516;2023-04-25T04:32:55;2.07;96.26
69776;DHT22;57049;51.450;-2.516;2023-04-25T04:35:21;2.04;96.18
69776;DHT22;57049;51.450;-2.516;2023-04-25T04:37:47;2.00;96.04
69776;DHT22;57049;51.450;-2.516;2023-04-25T04:40:13;1.98;96.24
69776;DHT22;57049;51.450;-2.516;2023-04-25T04:42:41;1.98;96.32
69776;DHT22;57049;51.450;-2.516;2023-04-25T04:45:07;2.03;96.41
69776;DHT22;57049;51.450;-2.516;2023-04-25T04:47:33;1.97;96.18
69776;DHT22;57049;51.450;-2.516;2023-04-25T04:49:59;1.98;96.30
69776;DHT22;57049;51.450;-2.516;2023-04-25T04:52:25;1.95;96.28
69776;DHT22;57049;51.450;-2.516;2023-04-25T04:54:50;1.90;96.24
69776;DHT22;57049;51.450;-2.516;2023-04-25T04:57:16;1.90;96.30
69776;DHT22;57049;51.450;-2.516;2023-04-25T04:59:41;1.93;96.17
69776;DHT22;57049;51.450;-2.516;2023-04-25T05:02:07;2.01;95.29
69776;DHT22;57049;51.450;-2.516;2023-04-25T05:04:32;2.17;94.29
69776;DHT22;57049;51.450;-2.516;2023-04-25T05:06:58;2.22;94.48
69776;DHT22;57049;51.450;-2.516;2023-04-25T05:09:24;2.22;94.55
69776;DHT22;57049;51.450;-2.516;2023-04-25T05:11:52;2.24;93.58
69776;DHT22;57049;51.450;-2.516;2023-04-25T05:14:18;2.36;93.28
69776;DHT22;57049;51.450;-2.516;2023-04-25T05:16:43;2.41;93.09
69776;DHT22;57049;51.450;-2.516;2023-04-25T05:19:09;2.48;92.91
69776;DHT22;57049;51.450;-2.516;2023-04-25T05:21:35;2.46;93.14
69776;DHT22;57049;51.450;-2.516;2023-04-25T05:24:01;2.49;92.40
69776;DHT22;57049;51.450;-2.516;2023-04-25T05:26:26;2.50;92.34
69776;DHT22;57049;51.450;-2.516;2023-04-25T05:28:59;2.52;92.31
69776;DHT22;57049;51.450;-2.516;2023-04-25T05:31:25;2.53;92.17
69776;DHT22;57049;51.450;-2.516;2023-04-25T05:33:50;2.53;91.96
69776;DHT22;57049;51.450;-2.516;2023-04-25T05:36:16;2.59;92.49
69776;DHT22;57049;51.450;-2.516;2023-04-25T05:38:42;2.55;92.92
69776;DHT22;57049;51.450;-2.516;2023-04-25T05:41:07;2.56;93.32
69776;DHT22;57049;51.450;-2.516;2023-04-25T05:43:33;2.58;93.22
69776;DHT22;57049;51.450;-2.516;2023-04-25T05:45:58;2.67;93.56
69776;DHT22;57049;51.450;-2.516;2023-04-25T05:48:24;2.79;93.55
69776;DHT22;57049;51.450;-2.516;2023-04-25T05:50:49;2.95;93.11
69776;DHT22;57049;51.450;-2.516;2023-04-25T05:53:17;3.27;92.48
69776;DHT22;57049;51.450;-2.516;2023-04-25T05:55:45;4.01;90.91
69776;DHT22;57049;51.450;-2.516;2023-04-25T05:58:11;4.44;89.79
69776;DHT22;57049;51.450;-2.516;2023-04-25T06:00:37;5.32;87.88
69776;DHT22;57049;51.450;-2.516;2023-04-25T06:03:02;6.10;84.40
69776;DHT22;57049;51.450;-2.516;2023-04-25T06:05:28;6.93;82.35
69776;DHT22;57049;51.450;-2.516;2023-04-25T06:07:54;7.54;78.99
69776;DHT22;57049;51.450;-2.516;2023-04-25T06:10:19;8.21;77.37
69776;DHT22;57049;51.450;-2.516;2023-04-25T06:12:45;8.80;75.15
69776;DHT22;57049;51.450;-2.516;2023-04-25T06:15:10;9.24;73.20
69776;DHT22;57049;51.450;-2.516;2023-04-25T06:17:36;9.63;72.39
69776;DHT22;57049;51.450;-2.516;2023-04-25T06:20:02;10.41;70.48
69776;DHT22;57049;51.450;-2.516;2023-04-25T06:22:29;10.65;70.46
69776;DHT22;57049;51.450;-2.516;2023-04-25T06:24:54;11.25;68.30
69776;DHT22;57049;51.450;-2.516;2023-04-25T06:27:22;12.02;67.07
69776;DHT22;57049;51.450;-2.516;2023-04-25T06:29:47;12.29;65.37
69776;DHT22;57049;51.450;-2.516;2023-04-25T06:32:13;12.35;62.83
69776;DHT22;57049;51.450;-2.516;2023-04-25T06:34:39;11.95;62.05
69776;DHT22;57049;51.450;-2.516;2023-04-25T06:37:04;12.38;59.35
69776;DHT22;57049;51.450;-2.516;2023-04-25T06:39:30;11.46;59.27
69776;DHT22;57049;51.450;-2.516;2023-04-25T06:41:56;11.23;60.23
69776;DHT22;57049;51.450;-2.516;2023-04-25T06:44:24;11.83;56.66
69776;DHT22;57049;51.450;-2.516;2023-04-25T06:46:51;10.47;59.30
69776;DHT22;57049;51.450;-2.516;2023-04-25T06:49:17;10.40;57.42
69776;DHT22;57049;51.450;-2.516;2023-04-25T06:51:42;10.88;57.61
69776;DHT22;57049;51.450;-2.516;2023-04-25T06:54:08;10.40;58.80
69776;DHT22;57049;51.450;-2.516;2023-04-25T06:56:33;10.47;61.01
69776;DHT22;57049;51.450;-2.516;2023-04-25T06:58:59;10.06;60.56
69776;DHT22;57049;51.450;-2.516;2023-04-25T07:01:26;10.29;59.52
69776;DHT22;57049;51.450;-2.516;2023-04-25T07:03:51;10.38;60.85
69776;DHT22;57049;51.450;-2.516;2023-04-25T07:06:17;10.41;62.61
69776;DHT22;57049;51.450;-2.516;2023-04-25T07:08:43;10.24;61.51
69776;DHT22;57049;51.450;-2.516;2023-04-25T07:11:08;10.72;62.20
69776;DHT22;57049;51.450;-2.516;2023-04-25T07:13:34;11.63;59.15
69776;DHT22;57049;51.450;-2.516;2023-04-25T07:15:59;10.69;59.07
69776;DHT22;57049;51.450;-2.516;2023-04-25T07:18:28;10.24;61.31
69776;DHT22;57049;51.450;-2.516;2023-04-25T07:20:54;10.79;60.79
69776;DHT22;57049;51.450;-2.516;2023-04-25T07:23:19;11.80;59.31
69776;DHT22;57049;51.450;-2.516;2023-04-25T07:25:45;11.11;59.49
69776;DHT22;57049;51.450;-2.516;2023-04-25T07:28:10;10.61;61.05
69776;DHT22;57049;51.450;-2.516;2023-04-25T07:30:36;10.57;61.29
69776;DHT22;57049;51.450;-2.516;2023-04-25T07:33:02;12.11;59.78
69776;DHT22;57049;51.450;-2.516;2023-04-25T07:35:27;11.16;58.59
69776;DHT22;57049;51.450;-2.516;2023-04-25T07:37:53;10.89;60.51
69776;DHT22;57049;51.450;-2.516;2023-04-25T07:40:18;10.64;62.52
69776;DHT22;57049;51.450;-2.516;2023-04-25T07:42:44;11.50;62.23
69776;DHT22;57049;51.450;-2.516;2023-04-25T07:45:10;10.81;60.09
69776;DHT22;57049;51.450;-2.516;2023-04-25T07:47:35;11.26;60.52
69776;DHT22;57049;51.450;-2.516;2023-04-25T07:50:02;12.21;57.95
69776;DHT22;57049;51.450;-2.516;2023-04-25T07:52:28;11.87;58.18
69776;DHT22;57049;51.450;-2.516;2023-04-25T07:54:54;11.69;58.83
69776;DHT22;57049;51.450;-2.516;2023-04-25T07:57:20;12.50;56.67
69776;DHT22;57049;51.450;-2.516;2023-04-25T07:59:45;12.78;56.81
69776;DHT22;57049;51.450;-2.516;2023-04-25T08:02:11;12.68;55.82
69776;DHT22;57049;51.450;-2.516;2023-04-25T08:04:36;13.48;54.29
69776;DHT22;57049;51.450;-2.516;2023-04-25T08:07:02;12.79;53.92
69776;DHT22;57049;51.450;-2.516;2023-04-25T08:09:28;13.00;52.44
69776;DHT22;57049;51.450;-2.516;2023-04-25T08:11:54;13.53;52.47
69776;DHT22;57049;51.450;-2.516;2023-04-25T08:14:20;13.37;51.55
69776;DHT22;57049;51.450;-2.516;2023-04-25T08:16:45;14.23;52.09
69776;DHT22;57049;51.450;-2.516;2023-04-25T08:19:13;13.83;51.63
69776;DHT22;57049;51.450;-2.516;2023-04-25T08:21:38;13.74;51.28
69776;DHT22;57049;51.450;-2.516;2023-04-25T08:24:04;13.26;50.05
69776;DHT22;57049;51.450;-2.516;2023-04-25T08:26:30;14.29;50.23
69776;DHT22;57049;51.450;-2.516;2023-04-25T08:28:55;13.48;47.72
69776;DHT22;57049;51.450;-2.516;2023-04-25T08:31:21;11.83;51.01
69776;DHT22;57049;51.450;-2.516;2023-04-25T08:33:47;12.48;50.45
69776;DHT22;57049;51.450;-2.516;2023-04-25T08:36:12;12.13;51.62
69776;DHT22;57049;51.450;-2.516;2023-04-25T08:38:38;12.08;52.06
69776;DHT22;57049;51.450;-2.516;2023-04-25T08:41:05;11.74;51.13
69776;DHT22;57049;51.450;-2.516;2023-04-25T08:43:32;10.20;54.23
69776;DHT22;57049;51.450;-2.516;2023-04-25T08:46:01;9.97;54.87
69776;DHT22;57049;51.450;-2.516;2023-04-25T08:48:27;9.48;57.77
69776;DHT22;57049;51.450;-2.516;2023-04-25T08:50:56;9.55;57.07
69776;DHT22;57049;51.450;-2.516;2023-04-25T08:53:25;9.92;60.10
69776;DHT22;57049;51.450;-2.516;2023-04-25T08:55:53;9.41;57.74
69776;DHT22;57049;51.450;-2.516;2023-04-25T08:58:20;9.76;59.73
69776;DHT22;57049;51.450;-2.516;2023-04-25T09:00:46;10.29;58.21
69776;DHT22;57049;51.450;-2.516;2023-04-25T09:03:12;9.58;54.93
69776;DHT22;57049;51.450;-2.516;2023-04-25T09:05:39;9.55;57.78
69776;DHT22;57049;51.450;-2.516;2023-04-25T09:08:05;9.17;59.47
69776;DHT22;57049;51.450;-2.516;2023-04-25T09:10:31;9.08;57.95
69776;DHT22;57049;51.450;-2.516;2023-04-25T09:13:03;9.62;58.18
69776;DHT22;57049;51.450;-2.516;2023-04-25T09:15:31;8.63;56.90
69776;DHT22;57049;51.450;-2.516;2023-04-25T09:17:57;8.66;57.33
69776;DHT22;57049;51.450;-2.516;2023-04-25T09:20:23;8.80;56.78
69776;DHT22;57049;51.450;-2.516;2023-04-25T09:23:01;8.87;59.24
69776;DHT22;57049;51.450;-2.516;2023-04-25T09:25:26;8.97;59.77
69776;DHT22;57049;51.450;-2.516;2023-04-25T09:27:53;9.08;58.00
69776;DHT22;57049;51.450;-2.516;2023-04-25T09:30:29;9.36;57.49
69776;DHT22;57049;51.450;-2.516;2023-04-25T09:33:10;8.81;56.93
69776;DHT22;57049;51.450;-2.516;2023-04-25T09:35:45;8.66;58.84
69776;DHT22;57049;51.450;-2.516;2023-04-25T09:38:14;8.53;56.85
69776;DHT22;57049;51.450;-2.516;2023-04-25T09:40:46;8.50;56.41
69776;DHT22;57049;51.450;-2.516;2023-04-25T09:43:22;8.61;56.67
69776;DHT22;57049;51.450;-2.516;2023-04-25T09:45:48;8.68;58.46
69776;DHT22;57049;51.450;-2.516;2023-04-25T09:48:18;8.78;59.62
69776;DHT22;57049;51.450;-2.516;2023-04-25T09:50:52;8.81;56.41
69776;DHT22;57049;51.450;-2.516;2023-04-25T09:53:29;8.97;58.69
69776;DHT22;57049;51.450;-2.516;2023-04-25T09:55:56;8.97;58.78
69776;DHT22;57049;51.450;-2.516;2023-04-25T09:58:23;9.10;56.87
69776;DHT22;57049;51.450;-2.516;2023-04-25T10:00:50;9.11;58.05
69776;DHT22;57049;51.450;-2.516;2023-04-25T10:03:17;9.38;58.42
69776;DHT22;57049;51.450;-2.516;2023-04-25T10:05:43;8.92;58.46
69776;DHT22;57049;51.450;-2.516;2023-04-25T10:08:11;9.10;56.94
69776;DHT22;57049;51.450;-2.516;2023-04-25T10:10:38;9.32;59.01
69776;DHT22;57049;51.450;-2.516;2023-04-25T10:13:05;9.31;58.67
69776;DHT22;57049;51.450;-2.516;2023-04-25T10:15:35;9.43;59.32
69776;DHT22;57049;51.450;-2.516;2023-04-25T10:18:02;9.69;59.27
69776;DHT22;57049;51.450;-2.516;2023-04-25T10:20:29;9.70;56.81
69776;DHT22;57049;51.450;-2.516;2023-04-25T10:22:58;9.50;57.24
69776;DHT22;57049;51.450;-2.516;2023-04-25T10:25:28;9.28;56.15
69776;DHT22;57049;51.450;-2.516;2023-04-25T10:27:54;8.98;55.98
69776;DHT22;57049;51.450;-2.516;2023-04-25T10:30:20;8.98;56.59
69776;DHT22;57049;51.450;-2.516;2023-04-25T10:32:46;8.94;55.53
69776;DHT22;57049;51.450;-2.516;2023-04-25T10:35:14;9.10;56.74
69776;DHT22;57049;51.450;-2.516;2023-04-25T10:38:03;9.31;57.68
69776;DHT22;57049;51.450;-2.516;2023-04-25T10:40:30;9.35;57.90
69776;DHT22;57049;51.450;-2.516;2023-04-25T10:45:59;9.72;55.82
69776;DHT22;57049;51.450;-2.516;2023-04-25T10:48:29;9.83;57.23
69776;DHT22;57049;51.450;-2.516;2023-04-25T10:51:14;9.60;54.55
69776;DHT22;57049;51.450;-2.516;2023-04-25T10:53:40;9.45;56.81
69776;DHT22;57049;51.450;-2.516;2023-04-25T10:56:30;9.35;55.50
69776;DHT22;57049;51.450;-2.516;2023-04-25T10:59:10;9.39;55.54
69776;DHT22;57049;51.450;-2.516;2023-04-25T11:01:47;9.62;54.68
69776;DHT22;57049;51.450;-2.516;2023-04-25T11:04:29;10.03;57.17
69776;DHT22;57049;51.450;-2.516;2023-04-25T11:09:32;10.38;54.59
69776;DHT22;57049;51.450;-2.516;2023-04-25T11:11:59;10.60;58.05
69776;DHT22;57049;51.450;-2.516;2023-04-25T11:14:26;10.94;54.13
69776;DHT22;57049;51.450;-2.516;2023-04-25T11:16:57;10.40;53.17
69776;DHT22;57049;51.450;-2.516;2023-04-25T11:19:23;10.81;53.84
69776;DHT22;57049;51.450;-2.516;2023-04-25T11:21:49;10.65;54.03
69776;DHT22;57049;51.450;-2.516;2023-04-25T11:24:16;10.64;52.86
69776;DHT22;57049;51.450;-2.516;2023-04-25T11:26:43;10.14;51.51
69776;DHT22;57049;51.450;-2.516;2023-04-25T11:29:09;9.94;53.02
69776;DHT22;57049;51.450;-2.516;2023-04-25T11:31:34;10.58;55.07
69776;DHT22;57049;51.450;-2.516;2023-04-25T11:34:00;10.54;51.82
69776;DHT22;57049;51.450;-2.516;2023-04-25T11:36:26;10.13;53.22
69776;DHT22;57049;51.450;-2.516;2023-04-25T11:38:53;10.21;53.88
69776;DHT22;57049;51.450;-2.516;2023-04-25T11:41:21;10.65;52.62
69776;DHT22;57049;51.450;-2.516;2023-04-25T11:43:48;11.23;53.12
69776;DHT22;57049;51.450;-2.516;2023-04-25T11:46:14;11.08;49.76
69776;DHT22;57049;51.450;-2.516;2023-04-25T11:48:42;11.22;51.18
69776;DHT22;57049;51.450;-2.516;2023-04-25T11:51:08;10.47;51.91
69776;DHT22;57049;51.450;-2.516;2023-04-25T11:53:34;10.20;53.25
69776;DHT22;57049;51.450;-2.516;2023-04-25T11:56:00;9.93;52.39
69776;DHT22;57049;51.450;-2.516;2023-04-25T11:58:26;10.18;52.63
69776;DHT22;57049;51.450;-2.516;2023-04-25T12:00:52;10.55;52.87
69776;DHT22;57049;51.450;-2.516;2023-04-25T12:03:18;10.82;50.32
69776;DHT22;57049;51.450;-2.516;2023-04-25T12:05:45;10.94;53.27
69776;DHT22;57049;51.450;-2.516;2023-04-25T12:08:12;11.23;52.39
69776;DHT22;57049;51.450;-2.516;2023-04-25T12:10:40;11.98;50.47
69776;DHT22;57049;51.450;-2.516;2023-04-25T12:13:20;11.77;48.19
69776;DHT22;57049;51.450;-2.516;2023-04-25T12:15:45;11.26;50.96
69776;DHT22;57049;51.450;-2.516;2023-04-25T12:18:11;11.09;49.72
69776;DHT22;57049;51.450;-2.516;2023-04-25T12:20:36;11.42;52.27
69776;DHT22;57049;51.450;-2.516;2023-04-25T12:23:05;12.10;52.21
69776;DHT22;57049;51.450;-2.516;2023-04-25T12:25:43;12.20;49.29
69776;DHT22;57049;51.450;-2.516;2023-04-25T12:28:20;12.28;47.86
69776;DHT22;57049;51.450;-2.516;2023-04-25T12:31:02;11.97;50.87
69776;DHT22;57049;51.450;-2.516;2023-04-25T12:33:30;11.64;49.46
69776;DHT22;57049;51.450;-2.516;2023-04-25T12:35:57;11.59;49.88
69776;DHT22;57049;51.450;-2.516;2023-04-25T12:38:29;11.29;50.18
69776;DHT22;57049;51.450;-2.516;2023-04-25T12:40:56;11.64;52.43
69776;DHT22;57049;51.450;-2.516;2023-04-25T12:43:21;11.56;49.16
69776;DHT22;57049;51.450;-2.516;2023-04-25T12:45:48;11.50;48.74
69776;DHT22;57049;51.450;-2.516;2023-04-25T12:48:15;11.32;49.38
69776;DHT22;57049;51.450;-2.516;2023-04-25T12:50:40;11.18;50.45
69776;DHT22;57049;51.450;-2.516;2023-04-25T12:53:06;11.80;50.99
69776;DHT22;57049;51.450;-2.516;2023-04-25T12:55:32;11.93;49.43
69776;DHT22;57049;51.450;-2.516;2023-04-25T12:57:57;12.31;50.17
69776;DHT22;57049;51.450;-2.516;2023-04-25T13:00:23;11.47;49.79
69776;DHT22;57049;51.450;-2.516;2023-04-25T13:02:48;11.09;51.08
69776;DHT22;57049;51.450;-2.516;2023-04-25T13:05:14;10.91;49.80
69776;DHT22;57049;51.450;-2.516;2023-04-25T13:07:40;11.01;50.20
69776;DHT22;57049;51.450;-2.516;2023-04-25T13:10:07;11.43;50.57
69776;DHT22;57049;51.450;-2.516;2023-04-25T13:12:33;12.04;50.86
69776;DHT22;57049;51.450;-2.516;2023-04-25T13:14:58;11.97;51.07
69776;DHT22;57049;51.450;-2.516;2023-04-25T13:17:24;12.66;53.93
69776;DHT22;57049;51.450;-2.516;2023-04-25T13:19:49;12.25;45.98
69776;DHT22;57049;51.450;-2.516;2023-04-25T13:22:15;11.64;48.31
69776;DHT22;57049;51.450;-2.516;2023-04-25T13:24:42;11.36;47.69
69776;DHT22;57049;51.450;-2.516;2023-04-25T13:27:08;11.33;48.30
69776;DHT22;57049;51.450;-2.516;2023-04-25T13:29:33;11.33;49.71
69776;DHT22;57049;51.450;-2.516;2023-04-25T13:32:01;10.94;49.62
69776;DHT22;57049;51.450;-2.516;2023-04-25T13:34:28;11.36;51.25
69776;DHT22;57049;51.450;-2.516;2023-04-25T13:36:53;11.56;49.51
69776;DHT22;57049;51.450;-2.516;2023-04-25T13:39:19;12.55;51.32
69776;DHT22;57049;51.450;-2.516;2023-04-25T13:41:48;13.23;47.94
69776;DHT22;57049;51.450;-2.516;2023-04-25T13:44:14;13.79;47.83
69776;DHT22;57049;51.450;-2.516;2023-04-25T13:46:39;14.02;45.20
69776;DHT22;57049;51.450;-2.516;2023-04-25T13:49:05;14.06;44.72
69776;DHT22;57049;51.450;-2.516;2023-04-25T13:51:31;14.40;44.50
69776;DHT22;57049;51.450;-2.516;2023-04-25T13:53:56;14.33;43.02
69776;DHT22;57049;51.450;-2.516;2023-04-25T13:56:22;13.70;43.66
69776;DHT22;57049;51.450;-2.516;2023-04-25T13:58:50;12.88;47.17
69776;DHT22;57049;51.450;-2.516;2023-04-25T14:01:17;12.18;45.77
69776;DHT22;57049;51.450;-2.516;2023-04-25T14:03:42;12.11;46.47
69776;DHT22;57049;51.450;-2.516;2023-04-25T14:06:08;11.93;45.77
69776;DHT22;57049;51.450;-2.516;2023-04-25T14:08:34;12.34;47.95
69776;DHT22;57049;51.450;-2.516;2023-04-25T14:10:59;12.18;44.34
69776;DHT22;57049;51.450;-2.516;2023-04-25T14:13:25;12.05;46.35
69776;DHT22;57049;51.450;-2.516;2023-04-25T14:15:51;12.27;47.67
69776;DHT22;57049;51.450;-2.516;2023-04-25T14:18:17;12.65;46.02
69776;DHT22;57049;51.450;-2.516;2023-04-25T14:20:43;12.55;45.70
69776;DHT22;57049;51.450;-2.516;2023-04-25T14:23:08;12.08;45.42
69776;DHT22;57049;51.450;-2.516;2023-04-25T14:25:34;11.95;46.31
69776;DHT22;57049;51.450;-2.516;2023-04-25T14:28:01;11.80;46.47
69776;DHT22;57049;51.450;-2.516;2023-04-25T14:30:27;11.84;48.53
69776;DHT22;57049;51.450;-2.516;2023-04-25T14:32:52;11.63;47.69
69776;DHT22;57049;51.450;-2.516;2023-04-25T14:35:18;11.37;47.29
69776;DHT22;57049;51.450;-2.516;2023-04-25T14:37:43;11.25;47.83
69776;DHT22;57049;51.450;-2.516;2023-04-25T14:40:10;11.35;46.96
69776;DHT22;57049;51.450;-2.516;2023-04-25T14:42:36;11.62;46.66
69776;DHT22;57049;51.450;-2.516;2023-04-25T14:45:06;12.42;47.15
69776;DHT22;57049;51.450;-2.516;2023-04-25T14:47:37;12.68;44.83
69776;DHT22;57049;51.450;-2.516;2023-04-25T14:50:03;12.29;45.50
69776;DHT22;57049;51.450;-2.516;2023-04-25T14:52:30;12.72;43.64
69776;DHT22;57049;51.450;-2.516;2023-04-25T14:54:56;12.58;45.31
69776;DHT22;57049;51.450;-2.516;2023-04-25T14:57:21;12.25;45.45
69776;DHT22;57049;51.450;-2.516;2023-04-25T14:59:47;11.94;44.93
69776;DHT22;57049;51.450;-2.516;2023-04-25T15:02:12;11.80;44.03
69776;DHT22;57049;51.450;-2.516;2023-04-25T15:04:38;11.91;45.94
69776;DHT22;57049;51.450;-2.516;2023-04-25T15:07:04;12.41;46.24
69776;DHT22;57049;51.450;-2.516;2023-04-25T15:09:29;11.90;43.86
69776;DHT22;57049;51.450;-2.516;2023-04-25T15:11:56;11.71;43.62
69776;DHT22;57049;51.450;-2.516;2023-04-25T15:14:22;11.98;45.75
69776;DHT22;57049;51.450;-2.516;2023-04-25T15:16:47;12.56;44.76
69776;DHT22;57049;51.450;-2.516;2023-04-25T15:19:13;13.27;44.77
69776;DHT22;57049;51.450;-2.516;2023-04-25T15:21:39;13.03;44.31
69776;DHT22;57049;51.450;-2.516;2023-04-25T15:24:05;13.20;45.06
69776;DHT22;57049;51.450;-2.516;2023-04-25T15:26:30;12.45;46.19
69776;DHT22;57049;51.450;-2.516;2023-04-25T15:28:56;12.15;46.05
69776;DHT22;57049;51.450;-2.516;2023-04-25T15:31:22;12.02;46.60